createdAt,value
2018-12-16T00:00:39.183Z,12.87
2018-12-16T00:04:49.869Z,14.07
2018-12-16T00:08:50.475Z,13.83
2018-12-16T00:12:57.187Z,13.07
2018-12-16T00:17:12.134Z,15.40
2018-12-16T00:21:15.893Z,12.43
2018-12-16T00:25:24.007Z,12.20
2018-12-16T00:29:29.837Z,12.43
2018-12-16T00:33:37.477Z,14.47
2018-12-16T00:37:44.094Z,14.30
2018-12-16T00:41:49.711Z,15.73
2018-12-16T00:45:54.480Z,16.07
2018-12-16T00:50:00.086Z,14.83
2018-12-16T00:54:05.914Z,13.23
2018-12-16T00:58:08.294Z,11.47
2018-12-16T01:02:17.550Z,14.13
2018-12-16T01:06:25.065Z,12.63
2018-12-16T01:10:29.678Z,14.30
2018-12-16T01:14:35.006Z,15.83
2018-12-16T01:18:43.048Z,13.40
2018-12-16T01:22:44.691Z,17.90
2018-12-16T01:26:49.507Z,16.57
2018-12-16T01:30:55.212Z,15.17
2018-12-16T01:34:59.486Z,14.87
2018-12-16T01:39:05.867Z,17.40
2018-12-16T01:43:15.754Z,14.60
2018-12-16T01:47:22.616Z,20.07
2018-12-16T01:51:27.734Z,25.00
2018-12-16T01:55:31.811Z,17.73
2018-12-16T01:59:36.123Z,15.47
2018-12-16T02:03:43.336Z,21.23
2018-12-16T02:07:47.427Z,20.33
2018-12-16T02:11:51.802Z,15.77
2018-12-16T02:15:59.676Z,15.13
2018-12-16T02:20:04.496Z,16.87
2018-12-16T02:24:09.271Z,15.07
2018-12-16T02:28:14.159Z,16.87
2018-12-16T02:32:18.187Z,17.00
2018-12-16T02:36:22.775Z,17.37
2018-12-16T02:40:27.376Z,20.63
2018-12-16T02:44:34.397Z,17.20
2018-12-16T02:48:38.230Z,19.67
2018-12-16T02:52:42.186Z,20.23
2018-12-16T02:56:50.398Z,21.30
2018-12-16T03:00:54.663Z,18.37
2018-12-16T03:04:59.081Z,20.97
2018-12-16T03:09:03.257Z,20.97
2018-12-16T03:13:05.526Z,22.13
2018-12-16T03:17:10.098Z,21.27
2018-12-16T03:21:17.335Z,20.87
2018-12-16T03:25:23.685Z,19.70
2018-12-16T03:29:27.589Z,19.63
2018-12-16T03:33:32.825Z,21.53
2018-12-16T03:37:35.119Z,18.27
2018-12-16T03:41:42.763Z,18.03
2018-12-16T03:45:47.017Z,19.83
2018-12-16T03:49:51.319Z,19.20
2018-12-16T03:53:55.153Z,18.80
2018-12-16T03:57:58.699Z,21.67
2018-12-16T04:02:02.802Z,20.57
2018-12-16T04:06:07.297Z,20.23
2018-12-16T04:10:11.154Z,21.17
2018-12-16T04:14:15.325Z,19.43
2018-12-16T04:18:21.163Z,17.97
2018-12-16T04:22:23.753Z,18.43
2018-12-16T04:26:27.971Z,20.50
2018-12-16T04:30:32.129Z,20.20
2018-12-16T04:34:42.814Z,19.37
2018-12-16T04:38:47.702Z,17.70
2018-12-16T04:42:54.675Z,20.90
2018-12-16T04:46:58.385Z,18.80
2018-12-16T04:51:02.895Z,20.90
2018-12-16T04:59:38.436Z,20.53
2018-12-16T05:03:43.176Z,17.17
2018-12-16T05:07:48.496Z,21.47
2018-12-16T05:11:56.406Z,19.77
2018-12-16T05:16:04.091Z,19.13
2018-12-16T05:20:07.726Z,20.93
2018-12-16T05:24:13.862Z,17.70
2018-12-16T05:28:16.462Z,18.77
2018-12-16T05:32:25.843Z,17.93
2018-12-16T05:36:30.292Z,19.43
2018-12-16T05:40:38.515Z,19.50
2018-12-16T05:44:46.167Z,17.73
2018-12-16T05:48:50.568Z,18.57
2018-12-16T05:52:55.228Z,24.87
2018-12-16T05:56:59.370Z,19.10
2018-12-16T06:01:03.958Z,17.60
2018-12-16T06:05:07.010Z,19.73
2018-12-16T06:09:09.626Z,21.53
2018-12-16T06:13:15.283Z,17.77
2018-12-16T06:17:22.790Z,18.43
2018-12-16T06:21:27.315Z,17.13
2018-12-16T06:25:31.206Z,17.47
2018-12-16T06:29:39.523Z,19.30
2018-12-16T06:33:43.730Z,16.80
2018-12-16T06:37:48.267Z,18.83
2018-12-16T06:41:52.363Z,19.97
2018-12-16T06:45:56.333Z,18.23
2018-12-16T06:50:04.970Z,19.83
2018-12-16T06:54:09.043Z,20.83
2018-12-16T06:58:13.273Z,21.83
2018-12-16T07:02:15.973Z,21.33
2018-12-16T07:06:21.555Z,18.83
2018-12-16T07:10:26.259Z,22.57
2018-12-16T07:14:30.876Z,22.23
2018-12-16T07:18:34.661Z,19.67
2018-12-16T07:22:39.014Z,20.07
2018-12-16T07:26:43.230Z,21.03
2018-12-16T07:30:49.226Z,21.33
2018-12-16T07:34:56.908Z,20.97
2018-12-16T07:39:06.364Z,17.53
2018-12-16T07:43:10.657Z,19.80
2018-12-16T07:47:14.607Z,18.27
2018-12-16T07:51:23.326Z,18.90
2018-12-16T07:55:27.826Z,22.27
2018-12-16T07:59:32.099Z,19.50
2018-12-16T08:03:37.747Z,24.87
2018-12-16T08:07:42.012Z,21.57
2018-12-16T08:11:45.930Z,21.00
2018-12-16T08:15:49.063Z,22.10
2018-12-16T08:19:53.291Z,19.23
2018-12-16T08:23:56.674Z,20.83
2018-12-16T08:28:00.959Z,24.80
2018-12-16T08:32:05.570Z,24.87
2018-12-16T08:36:08.625Z,22.40
2018-12-16T08:40:19.156Z,23.73
2018-12-16T08:44:23.468Z,22.77
2018-12-16T08:52:54.232Z,26.40
2018-12-16T08:56:56.741Z,26.50
2018-12-16T09:01:00.765Z,24.17
2018-12-16T09:05:04.965Z,24.70
2018-12-16T09:09:11.121Z,30.57
2018-12-16T09:13:18.234Z,27.07
2018-12-16T09:22:01.000Z,26.73
2018-12-16T09:26:03.970Z,24.93
2018-12-16T09:30:09.412Z,29.67
2018-12-16T09:34:13.643Z,28.00
2018-12-16T09:38:21.557Z,24.80
2018-12-16T09:42:25.959Z,27.83
2018-12-16T09:46:30.135Z,24.50
2018-12-16T09:50:34.303Z,31.50
2018-12-16T09:54:44.192Z,28.77
2018-12-16T10:03:08.871Z,29.40
2018-12-16T10:07:12.500Z,29.53
2018-12-16T10:11:18.237Z,26.23
2018-12-16T10:15:22.851Z,28.33
2018-12-16T10:19:28.109Z,26.10
2018-12-16T10:23:32.623Z,28.57
2018-12-16T10:27:36.877Z,24.47
2018-12-16T10:31:43.216Z,25.67
2018-12-16T10:35:46.971Z,28.57
2018-12-16T10:39:52.267Z,29.23
2018-12-16T10:43:56.868Z,28.83
2018-12-16T10:48:01.943Z,27.30
2018-12-16T10:52:09.850Z,28.20
2018-12-16T10:56:12.960Z,28.10
2018-12-16T11:00:28.637Z,29.97
2018-12-16T11:04:41.486Z,28.20
2018-12-16T11:08:49.637Z,28.23
2018-12-16T11:12:58.656Z,31.17
2018-12-16T11:17:05.664Z,30.87
2018-12-16T11:21:10.157Z,28.00
2018-12-16T11:25:16.775Z,29.03
2018-12-16T11:29:21.255Z,28.97
2018-12-16T11:33:26.851Z,29.73
2018-12-16T11:37:31.290Z,29.63
2018-12-16T11:41:35.634Z,30.97
2018-12-16T11:45:40.025Z,34.87
2018-12-16T11:49:45.536Z,32.87
2018-12-16T11:54:01.402Z,32.60
2018-12-16T11:58:05.235Z,33.20
2018-12-16T12:02:10.386Z,30.27
2018-12-16T12:06:14.214Z,29.30
2018-12-16T12:14:45.302Z,29.80
2018-12-16T12:18:54.225Z,34.00
2018-12-16T12:22:56.027Z,30.40
2018-12-16T12:26:58.319Z,36.13
2018-12-16T12:31:00.842Z,34.53
2018-12-16T12:35:04.737Z,33.80
2018-12-16T12:39:09.333Z,35.23
2018-12-16T12:43:17.459Z,35.00
2018-12-16T12:47:23.080Z,33.53
2018-12-16T12:51:27.283Z,36.07
2018-12-16T12:55:31.496Z,36.47
2018-12-16T12:59:37.790Z,39.93
2018-12-16T13:03:41.975Z,35.37
2018-12-16T13:07:46.702Z,39.83
2018-12-16T13:11:48.238Z,38.07
2018-12-16T13:15:52.497Z,33.60
2018-12-16T13:19:56.319Z,38.47
2018-12-16T13:24:00.170Z,35.57
2018-12-16T13:28:04.542Z,37.33
2018-12-16T13:32:06.647Z,35.03
2018-12-16T13:36:09.799Z,36.40
2018-12-16T13:40:16.643Z,33.63
2018-12-16T13:44:21.918Z,38.40
2018-12-16T13:52:50.828Z,37.23
2018-12-16T13:56:54.652Z,36.50
2018-12-16T14:00:58.432Z,39.17
2018-12-16T14:05:01.905Z,34.00
2018-12-16T14:09:06.119Z,40.67
2018-12-16T14:13:10.436Z,37.20
2018-12-16T14:17:17.673Z,33.00
2018-12-16T14:21:22.058Z,31.87
2018-12-16T14:25:29.971Z,33.77
2018-12-16T14:29:34.624Z,34.47
2018-12-16T14:33:39.141Z,41.83
2018-12-16T14:37:44.536Z,32.83
2018-12-16T14:41:49.250Z,39.90
2018-12-16T14:45:51.487Z,32.20
2018-12-16T14:49:55.635Z,31.70
2018-12-16T14:54:00.369Z,29.73
2018-12-16T14:58:05.355Z,29.33
2018-12-16T15:02:09.913Z,28.53
2018-12-16T15:06:12.961Z,29.87
2018-12-16T15:10:16.943Z,42.40
2018-12-16T15:14:21.806Z,29.43
2018-12-16T15:18:25.773Z,36.73
2018-12-16T15:22:29.939Z,25.90
2018-12-16T15:26:32.698Z,32.37
2018-12-16T15:30:37.540Z,32.37
2018-12-16T15:34:48.921Z,33.53
2018-12-16T15:38:53.307Z,38.67
2018-12-16T15:42:57.064Z,32.67
2018-12-16T15:47:02.314Z,28.63
2018-12-16T15:51:06.796Z,40.93
2018-12-16T15:55:11.948Z,34.47
2018-12-16T15:59:16.376Z,29.23
2018-12-16T16:03:20.207Z,30.27
2018-12-16T16:07:22.569Z,25.43
2018-12-16T16:11:28.326Z,27.33
2018-12-16T16:15:40.157Z,24.10
2018-12-16T16:19:45.540Z,24.03
2018-12-16T16:23:50.234Z,28.43
2018-12-16T16:27:54.729Z,40.67
2018-12-16T16:31:59.058Z,29.17
2018-12-16T16:36:03.237Z,25.00
2018-12-16T16:40:09.205Z,22.93
2018-12-16T16:44:16.711Z,30.73
2018-12-16T16:48:20.634Z,28.63
2018-12-16T16:52:24.878Z,31.93
2018-12-16T16:56:27.403Z,26.67
2018-12-16T17:00:30.567Z,27.60
2018-12-16T17:04:34.839Z,27.00
2018-12-16T17:08:39.111Z,22.00
2018-12-16T17:12:43.242Z,27.83
2018-12-16T17:16:45.560Z,29.70
2018-12-16T17:20:49.701Z,29.70
2018-12-16T17:24:53.817Z,23.87
2018-12-16T17:29:02.956Z,27.73
2018-12-16T17:33:08.774Z,36.47
2018-12-16T17:37:16.813Z,25.43
2018-12-16T17:41:29.902Z,22.00
2018-12-16T17:49:59.709Z,23.90
2018-12-16T17:54:03.821Z,24.77
2018-12-16T18:02:47.787Z,24.70
2018-12-16T18:06:50.201Z,24.93
2018-12-16T18:10:57.133Z,23.23
2018-12-16T18:15:01.877Z,24.40
2018-12-16T18:23:38.671Z,22.47
2018-12-16T18:27:43.857Z,23.10
2018-12-16T18:31:48.384Z,25.83
2018-12-16T18:35:55.999Z,25.17
2018-12-16T18:39:58.424Z,23.87
2018-12-16T18:44:02.713Z,24.60
2018-12-16T18:48:05.064Z,25.30
2018-12-16T18:52:09.049Z,23.93
2018-12-16T18:56:11.141Z,24.00
2018-12-16T19:00:15.326Z,25.07
2018-12-16T19:04:21.419Z,24.77
2018-12-16T19:08:25.443Z,26.47
2018-12-16T19:12:29.694Z,24.87
2018-12-16T19:16:31.969Z,24.23
2018-12-16T19:20:36.743Z,25.47
2018-12-16T19:24:41.322Z,23.93
2018-12-16T19:28:45.995Z,24.23
2018-12-16T19:32:49.974Z,26.20
2018-12-16T19:36:51.601Z,23.27
2018-12-16T19:40:56.476Z,23.30
2018-12-16T19:45:00.440Z,25.40
2018-12-16T19:49:02.711Z,22.40
2018-12-16T19:53:06.667Z,26.87
2018-12-16T19:57:12.052Z,22.57
2018-12-16T20:01:16.009Z,26.17
2018-12-16T20:05:21.117Z,21.63
2018-12-16T20:09:23.416Z,22.37
2018-12-16T20:13:27.177Z,29.33
2018-12-16T20:17:31.844Z,21.90
2018-12-16T20:21:34.504Z,21.33
2018-12-16T20:25:38.611Z,18.50
2018-12-16T20:29:43.110Z,20.03
2018-12-16T20:33:47.811Z,21.60
2018-12-16T20:37:50.277Z,20.37
2018-12-16T20:41:58.232Z,20.00
2018-12-16T20:46:06.789Z,18.63
2018-12-16T20:54:37.366Z,17.73
2018-12-16T20:58:41.298Z,20.57
2018-12-16T21:02:45.161Z,16.90
2018-12-16T21:06:47.338Z,17.57
2018-12-16T21:10:51.641Z,20.03
2018-12-16T21:15:01.198Z,19.70
2018-12-16T21:19:05.587Z,18.00
2018-12-16T21:23:13.418Z,16.37
2018-12-16T21:27:17.687Z,19.30
2018-12-16T21:31:21.909Z,20.50
2018-12-16T21:35:26.402Z,15.00
2018-12-16T21:39:29.751Z,16.57
2018-12-16T21:43:34.868Z,14.17
2018-12-16T21:47:39.517Z,17.00
2018-12-16T21:51:45.328Z,13.67
2018-12-16T21:55:52.024Z,17.10
2018-12-16T21:59:55.243Z,16.77
2018-12-16T22:03:59.768Z,16.77
2018-12-16T22:08:05.268Z,16.40
2018-12-16T22:12:12.580Z,16.40
2018-12-16T22:16:18.469Z,12.90
2018-12-16T22:20:22.341Z,15.53
2018-12-16T22:24:27.346Z,12.50
2018-12-16T22:28:32.385Z,16.70
2018-12-16T22:32:47.955Z,13.97
2018-12-16T22:36:50.873Z,14.80
2018-12-16T22:40:53.165Z,14.00
2018-12-16T22:44:57.182Z,17.93
2018-12-16T22:48:59.754Z,19.23
2018-12-16T22:53:04.146Z,16.37
2018-12-16T22:57:06.346Z,17.53
2018-12-16T23:01:17.638Z,15.23
2018-12-16T23:05:21.398Z,20.33
2018-12-16T23:09:25.337Z,16.67
2018-12-16T23:13:27.516Z,15.80
2018-12-16T23:17:32.253Z,14.27
2018-12-16T23:21:36.926Z,17.87
2018-12-16T23:25:44.944Z,17.47
2018-12-16T23:29:49.574Z,15.87
2018-12-16T23:33:55.042Z,14.67
2018-12-16T23:37:59.811Z,18.30
2018-12-16T23:42:10.720Z,16.27
2018-12-16T23:46:13.015Z,14.73
2018-12-16T23:50:17.278Z,12.13
2018-12-16T23:54:21.993Z,13.70
2018-12-16T23:58:25.427Z,11.97
